Terminal Aerodrome Forecast
Issued by NWS Atlanta, GA

Home | Current Version | Previous Version | Text Only | Print | Product List | Glossary On
Versions: 1 2 3 4 5 6 7 8 9 10 11 12 13 14 15 16 17 18 19 20 21 22 23 24 25 26 27 28 29 30 31 32 33 34 35 36 37 38 39 40 41
000
FTUS42 KFFC 311900 AAA
TAFATL
TAF AMD
KATL 311927Z 3119/0124 31012KT P6SM BKN060
     FM010000 31015G25KT P6SM VCSH BKN025
     FM011000 33018G28KT P6SM BKN025
     FM011600 32020G35KT P6SM BKN040
     FM012000 32020G32KT P6SM SCT040=

USA.gov is the U.S. government's official web portal to all federal, state and local government web resources and services.